sensor_id;sensor_type;location;lat;lon;timestamp;pressure;altitude;pressure_sealevel;temperature;humidity
56070;BME280;41944;52.078;-0.058;2023-02-03T00:01:35;102378.78;;;10.49;87.94
56070;BME280;41944;52.078;-0.058;2023-02-03T00:04:01;102376.06;;;10.40;87.75
56070;BME280;41944;52.078;-0.058;2023-02-03T00:06:30;102381.39;;;10.44;87.15
56070;BME280;41944;52.078;-0.058;2023-02-03T00:08:57;102376.33;;;10.31;87.24
56070;BME280;41944;52.078;-0.058;2023-02-03T00:11:25;102368.83;;;10.25;87.98
56070;BME280;41944;52.078;-0.058;2023-02-03T00:13:53;102367.79;;;10.21;88.03
56070;BME280;41944;52.078;-0.058;2023-02-03T00:16:20;102379.83;;;10.32;88.03
56070;BME280;41944;52.078;-0.058;2023-02-03T00:18:47;102374.99;;;10.32;88.16
56070;BME280;41944;52.078;-0.058;2023-02-03T00:21:14;102374.78;;;10.37;87.78
56070;BME280;41944;52.078;-0.058;2023-02-03T00:23:42;102373.50;;;10.40;88.06
56070;BME280;41944;52.078;-0.058;2023-02-03T00:26:10;102368.75;;;10.44;87.99
56070;BME280;41944;52.078;-0.058;2023-02-03T00:28:38;102368.42;;;10.43;88.29
56070;BME280;41944;52.078;-0.058;2023-02-03T00:31:07;102362.11;;;10.33;88.48
56070;BME280;41944;52.078;-0.058;2023-02-03T00:33:39;102352.04;;;10.39;88.46
56070;BME280;41944;52.078;-0.058;2023-02-03T00:36:07;102357.91;;;10.46;88.35
56070;BME280;41944;52.078;-0.058;2023-02-03T00:38:34;102368.93;;;10.42;88.34
56070;BME280;41944;52.078;-0.058;2023-02-03T00:41:00;102358.73;;;10.31;88.28
56070;BME280;41944;52.078;-0.058;2023-02-03T00:43:27;102356.99;;;10.43;87.82
56070;BME280;41944;52.078;-0.058;2023-02-03T00:45:54;102358.91;;;10.49;87.45
56070;BME280;41944;52.078;-0.058;2023-02-03T00:48:21;102359.18;;;10.47;87.43
56070;BME280;41944;52.078;-0.058;2023-02-03T00:50:48;102365.49;;;10.44;87.76
56070;BME280;41944;52.078;-0.058;2023-02-03T00:53:15;102367.55;;;10.39;87.41
56070;BME280;41944;52.078;-0.058;2023-02-03T00:55:42;102376.85;;;10.38;87.55
56070;BME280;41944;52.078;-0.058;2023-02-03T00:58:10;102378.55;;;10.28;87.64
56070;BME280;41944;52.078;-0.058;2023-02-03T01:00:37;102377.58;;;10.26;87.82
56070;BME280;41944;52.078;-0.058;2023-02-03T01:03:05;102370.49;;;10.37;87.58
56070;BME280;41944;52.078;-0.058;2023-02-03T01:05:32;102366.10;;;10.38;87.76
56070;BME280;41944;52.078;-0.058;2023-02-03T01:08:00;102363.93;;;10.37;87.86
56070;BME280;41944;52.078;-0.058;2023-02-03T01:10:27;102368.33;;;10.38;87.73
56070;BME280;41944;52.078;-0.058;2023-02-03T01:12:54;102362.04;;;10.39;87.66
56070;BME280;41944;52.078;-0.058;2023-02-03T01:15:21;102367.30;;;10.30;88.07
56070;BME280;41944;52.078;-0.058;2023-02-03T01:17:48;102361.26;;;10.31;88.42
56070;BME280;41944;52.078;-0.058;2023-02-03T01:20:15;102355.18;;;10.31;88.46
56070;BME280;41944;52.078;-0.058;2023-02-03T01:22:42;102357.09;;;10.30;88.36
56070;BME280;41944;52.078;-0.058;2023-02-03T01:25:09;102356.17;;;10.32;88.33
56070;BME280;41944;52.078;-0.058;2023-02-03T01:27:36;102356.48;;;10.35;88.17
56070;BME280;41944;52.078;-0.058;2023-02-03T01:30:03;102358.98;;;10.29;88.36
56070;BME280;41944;52.078;-0.058;2023-02-03T01:32:31;102363.09;;;10.32;88.12
56070;BME280;41944;52.078;-0.058;2023-02-03T01:34:58;102364.28;;;10.21;89.05
56070;BME280;41944;52.078;-0.058;2023-02-03T01:37:25;102361.45;;;10.24;89.23
56070;BME280;41944;52.078;-0.058;2023-02-03T01:39:52;102355.16;;;10.19;89.29
56070;BME280;41944;52.078;-0.058;2023-02-03T01:42:20;102344.56;;;10.12;89.65
56070;BME280;41944;52.078;-0.058;2023-02-03T01:44:49;102339.49;;;10.09;89.61
56070;BME280;41944;52.078;-0.058;2023-02-03T01:47:23;102346.07;;;10.13;89.61
56070;BME280;41944;52.078;-0.058;2023-02-03T01:49:56;102347.08;;;10.14;89.71
56070;BME280;41944;52.078;-0.058;2023-02-03T01:52:25;102345.44;;;10.15;89.84
56070;BME280;41944;52.078;-0.058;2023-02-03T01:54:55;102346.39;;;10.25;89.34
56070;BME280;41944;52.078;-0.058;2023-02-03T01:57:25;102349.78;;;10.24;89.65
56070;BME280;41944;52.078;-0.058;2023-02-03T01:59:56;102351.71;;;10.34;88.64
56070;BME280;41944;52.078;-0.058;2023-02-03T02:02:25;102357.39;;;10.23;89.65
56070;BME280;41944;52.078;-0.058;2023-02-03T02:04:56;102359.86;;;10.29;89.50
56070;BME280;41944;52.078;-0.058;2023-02-03T02:07:25;102360.48;;;10.26;89.72
56070;BME280;41944;52.078;-0.058;2023-02-03T02:09:54;102376.09;;;10.21;89.88
56070;BME280;41944;52.078;-0.058;2023-02-03T02:12:21;102381.05;;;10.26;89.73
56070;BME280;41944;52.078;-0.058;2023-02-03T02:14:48;102379.73;;;10.26;89.92
56070;BME280;41944;52.078;-0.058;2023-02-03T02:17:27;102381.41;;;10.26;90.16
56070;BME280;41944;52.078;-0.058;2023-02-03T02:20:18;102381.97;;;10.34;89.56
56070;BME280;41944;52.078;-0.058;2023-02-03T02:23:06;102376.64;;;10.35;89.38
56070;BME280;41944;52.078;-0.058;2023-02-03T02:25:51;102371.78;;;10.31;89.76
56070;BME280;41944;52.078;-0.058;2023-02-03T02:28:43;102365.50;;;10.32;90.16
56070;BME280;41944;52.078;-0.058;2023-02-03T02:32:29;102362.07;;;10.22;90.65
56070;BME280;41944;52.078;-0.058;2023-02-03T02:35:03;102365.10;;;10.32;90.61
56070;BME280;41944;52.078;-0.058;2023-02-03T02:37:43;102356.99;;;10.33;90.64
56070;BME280;41944;52.078;-0.058;2023-02-03T02:40:21;102357.56;;;10.36;90.45
56070;BME280;41944;52.078;-0.058;2023-02-03T02:43:00;102365.58;;;10.34;90.48
56070;BME280;41944;52.078;-0.058;2023-02-03T02:45:31;102361.37;;;10.38;90.16
56070;BME280;41944;52.078;-0.058;2023-02-03T02:48:05;102362.50;;;10.33;90.65
56070;BME280;41944;52.078;-0.058;2023-02-03T02:50:40;102360.99;;;10.39;90.69
56070;BME280;41944;52.078;-0.058;2023-02-03T02:53:10;102366.26;;;10.39;90.48
56070;BME280;41944;52.078;-0.058;2023-02-03T02:55:41;102379.63;;;10.46;90.38
56070;BME280;41944;52.078;-0.058;2023-02-03T02:58:13;102375.13;;;10.29;91.24
56070;BME280;41944;52.078;-0.058;2023-02-03T03:00:42;102377.98;;;10.22;91.90
56070;BME280;41944;52.078;-0.058;2023-02-03T03:03:12;102380.59;;;10.30;91.53
56070;BME280;41944;52.078;-0.058;2023-02-03T03:05:43;102383.47;;;10.37;90.99
56070;BME280;41944;52.078;-0.058;2023-02-03T03:08:12;102385.42;;;10.28;91.64
56070;BME280;41944;52.078;-0.058;2023-02-03T03:10:42;102383.44;;;10.31;91.29
56070;BME280;41944;52.078;-0.058;2023-02-03T03:13:22;102385.75;;;10.39;91.04
56070;BME280;41944;52.078;-0.058;2023-02-03T03:15:52;102395.35;;;10.31;91.40
56070;BME280;41944;52.078;-0.058;2023-02-03T03:18:23;102400.41;;;10.23;92.11
56070;BME280;41944;52.078;-0.058;2023-02-03T03:20:53;102404.55;;;10.32;91.69
56070;BME280;41944;52.078;-0.058;2023-02-03T03:23:24;102407.18;;;10.36;91.55
56070;BME280;41944;52.078;-0.058;2023-02-03T03:25:58;102409.44;;;10.35;91.37
56070;BME280;41944;52.078;-0.058;2023-02-03T03:28:34;102411.08;;;10.43;90.94
56070;BME280;41944;52.078;-0.058;2023-02-03T03:31:04;102404.96;;;10.45;90.99
56070;BME280;41944;52.078;-0.058;2023-02-03T03:33:30;102403.12;;;10.45;90.93
56070;BME280;41944;52.078;-0.058;2023-02-03T03:36:02;102401.19;;;10.45;91.08
56070;BME280;41944;52.078;-0.058;2023-02-03T03:38:36;102392.67;;;10.45;91.12
56070;BME280;41944;52.078;-0.058;2023-02-03T03:41:07;102396.46;;;10.44;91.22
56070;BME280;41944;52.078;-0.058;2023-02-03T03:43:38;102395.18;;;10.36;91.51
56070;BME280;41944;52.078;-0.058;2023-02-03T03:46:12;102394.06;;;10.38;91.65
56070;BME280;41944;52.078;-0.058;2023-02-03T03:48:43;102391.77;;;10.42;91.38
56070;BME280;41944;52.078;-0.058;2023-02-03T03:51:18;102387.47;;;10.40;91.32
56070;BME280;41944;52.078;-0.058;2023-02-03T03:53:47;102388.70;;;10.47;90.95
56070;BME280;41944;52.078;-0.058;2023-02-03T03:56:20;102394.62;;;10.52;90.60
56070;BME280;41944;52.078;-0.058;2023-02-03T03:58:52;102393.75;;;10.40;91.06
56070;BME280;41944;52.078;-0.058;2023-02-03T04:01:20;102392.60;;;10.47;90.66
56070;BME280;41944;52.078;-0.058;2023-02-03T04:03:53;102391.28;;;10.39;91.09
56070;BME280;41944;52.078;-0.058;2023-02-03T04:06:21;102392.72;;;10.36;91.34
56070;BME280;41944;52.078;-0.058;2023-02-03T04:08:47;102399.03;;;10.35;91.29
56070;BME280;41944;52.078;-0.058;2023-02-03T04:11:14;102398.79;;;10.38;91.06
56070;BME280;41944;52.078;-0.058;2023-02-03T04:13:41;102410.40;;;10.35;91.35
56070;BME280;41944;52.078;-0.058;2023-02-03T04:16:08;102414.91;;;10.31;91.40
56070;BME280;41944;52.078;-0.058;2023-02-03T04:18:36;102424.72;;;10.27;91.74
56070;BME280;41944;52.078;-0.058;2023-02-03T04:21:03;102429.75;;;10.34;91.26
56070;BME280;41944;52.078;-0.058;2023-02-03T04:23:30;102421.00;;;10.36;91.08
56070;BME280;41944;52.078;-0.058;2023-02-03T04:26:00;102423.12;;;10.26;91.59
56070;BME280;41944;52.078;-0.058;2023-02-03T04:28:27;102425.72;;;10.28;91.76
56070;BME280;41944;52.078;-0.058;2023-02-03T04:30:54;102423.27;;;10.22;92.08
56070;BME280;41944;52.078;-0.058;2023-02-03T04:33:21;102413.68;;;10.38;91.26
56070;BME280;41944;52.078;-0.058;2023-02-03T04:35:48;102408.27;;;10.38;91.28
56070;BME280;41944;52.078;-0.058;2023-02-03T04:38:15;102415.83;;;10.36;91.28
56070;BME280;41944;52.078;-0.058;2023-02-03T04:40:42;102416.92;;;10.31;91.44
56070;BME280;41944;52.078;-0.058;2023-02-03T04:43:09;102410.07;;;10.23;91.72
56070;BME280;41944;52.078;-0.058;2023-02-03T04:45:35;102410.67;;;10.26;91.72
56070;BME280;41944;52.078;-0.058;2023-02-03T04:48:02;102408.29;;;10.37;90.71
56070;BME280;41944;52.078;-0.058;2023-02-03T04:50:30;102422.32;;;10.30;91.05
56070;BME280;41944;52.078;-0.058;2023-02-03T04:52:58;102420.04;;;10.30;91.01
56070;BME280;41944;52.078;-0.058;2023-02-03T04:55:25;102419.02;;;10.28;91.03
56070;BME280;41944;52.078;-0.058;2023-02-03T04:57:54;102413.35;;;10.39;90.03
56070;BME280;41944;52.078;-0.058;2023-02-03T05:00:21;102422.53;;;10.34;90.21
56070;BME280;41944;52.078;-0.058;2023-02-03T05:02:48;102427.18;;;10.23;90.74
56070;BME280;41944;52.078;-0.058;2023-02-03T05:05:15;102431.78;;;10.38;90.15
56070;BME280;41944;52.078;-0.058;2023-02-03T05:07:42;102429.22;;;10.42;89.58
56070;BME280;41944;52.078;-0.058;2023-02-03T05:10:10;102426.69;;;10.44;89.32
56070;BME280;41944;52.078;-0.058;2023-02-03T05:12:37;102425.50;;;10.39;89.45
56070;BME280;41944;52.078;-0.058;2023-02-03T05:15:05;102417.16;;;10.38;89.19
56070;BME280;41944;52.078;-0.058;2023-02-03T05:17:32;102422.80;;;10.37;89.36
56070;BME280;41944;52.078;-0.058;2023-02-03T05:19:59;102434.99;;;10.30;89.75
56070;BME280;41944;52.078;-0.058;2023-02-03T05:22:26;102436.94;;;10.30;89.82
56070;BME280;41944;52.078;-0.058;2023-02-03T05:24:53;102435.78;;;10.33;89.78
56070;BME280;41944;52.078;-0.058;2023-02-03T05:27:20;102434.53;;;10.22;90.12
56070;BME280;41944;52.078;-0.058;2023-02-03T05:29:47;102441.46;;;10.29;90.09
56070;BME280;41944;52.078;-0.058;2023-02-03T05:32:14;102439.61;;;10.23;90.62
56070;BME280;41944;52.078;-0.058;2023-02-03T05:34:41;102446.82;;;10.21;90.79
56070;BME280;41944;52.078;-0.058;2023-02-03T05:37:08;102447.89;;;10.20;90.92
56070;BME280;41944;52.078;-0.058;2023-02-03T05:39:35;102456.68;;;10.05;91.44
56070;BME280;41944;52.078;-0.058;2023-02-03T05:42:02;102460.29;;;10.32;90.50
56070;BME280;41944;52.078;-0.058;2023-02-03T05:44:29;102466.30;;;10.19;90.83
56070;BME280;41944;52.078;-0.058;2023-02-03T05:46:57;102472.33;;;10.10;91.26
56070;BME280;41944;52.078;-0.058;2023-02-03T05:49:25;102472.62;;;10.12;90.93
56070;BME280;41944;52.078;-0.058;2023-02-03T05:51:54;102469.09;;;10.08;91.03
56070;BME280;41944;52.078;-0.058;2023-02-03T05:54:21;102470.09;;;10.07;91.28
56070;BME280;41944;52.078;-0.058;2023-02-03T05:56:49;102473.55;;;10.15;90.78
56070;BME280;41944;52.078;-0.058;2023-02-03T05:59:17;102475.63;;;10.08;90.92
56070;BME280;41944;52.078;-0.058;2023-02-03T06:01:43;102478.00;;;10.13;90.67
56070;BME280;41944;52.078;-0.058;2023-02-03T06:04:10;102483.30;;;10.10;90.77
56070;BME280;41944;52.078;-0.058;2023-02-03T06:06:37;102483.94;;;10.24;89.94
56070;BME280;41944;52.078;-0.058;2023-02-03T06:09:06;102484.79;;;10.24;90.16
56070;BME280;41944;52.078;-0.058;2023-02-03T06:11:34;102485.06;;;10.28;89.67
56070;BME280;41944;52.078;-0.058;2023-02-03T06:14:01;102477.48;;;10.31;89.17
56070;BME280;41944;52.078;-0.058;2023-02-03T06:16:29;102477.98;;;10.31;89.20
56070;BME280;41944;52.078;-0.058;2023-02-03T06:18:56;102476.84;;;10.35;89.14
56070;BME280;41944;52.078;-0.058;2023-02-03T06:21:23;102483.94;;;10.30;89.36
56070;BME280;41944;52.078;-0.058;2023-02-03T06:23:49;102486.65;;;10.34;89.11
56070;BME280;41944;52.078;-0.058;2023-02-03T06:26:16;102485.55;;;10.33;89.33
56070;BME280;41944;52.078;-0.058;2023-02-03T06:28:43;102482.52;;;10.20;89.84
56070;BME280;41944;52.078;-0.058;2023-02-03T06:31:10;102483.80;;;10.30;89.69
56070;BME280;41944;52.078;-0.058;2023-02-03T06:33:37;102484.92;;;10.32;89.53
56070;BME280;41944;52.078;-0.058;2023-02-03T06:36:05;102491.76;;;10.29;89.70
56070;BME280;41944;52.078;-0.058;2023-02-03T06:38:32;102494.09;;;10.23;89.89
56070;BME280;41944;52.078;-0.058;2023-02-03T06:40:59;102495.02;;;10.30;89.76
56070;BME280;41944;52.078;-0.058;2023-02-03T06:43:26;102502.85;;;10.18;90.42
56070;BME280;41944;52.078;-0.058;2023-02-03T06:45:53;102499.58;;;10.18;90.13
56070;BME280;41944;52.078;-0.058;2023-02-03T06:48:21;102497.60;;;10.17;90.37
56070;BME280;41944;52.078;-0.058;2023-02-03T06:50:47;102496.71;;;10.10;90.66
56070;BME280;41944;52.078;-0.058;2023-02-03T06:53:14;102488.44;;;10.17;90.29
56070;BME280;41944;52.078;-0.058;2023-02-03T06:55:41;102490.07;;;10.17;90.44
56070;BME280;41944;52.078;-0.058;2023-02-03T06:58:08;102492.91;;;10.25;90.26
56070;BME280;41944;52.078;-0.058;2023-02-03T07:00:35;102488.73;;;10.22;90.11
56070;BME280;41944;52.078;-0.058;2023-02-03T07:03:02;102488.26;;;10.09;91.01
56070;BME280;41944;52.078;-0.058;2023-02-03T07:05:30;102490.61;;;10.13;90.81
56070;BME280;41944;52.078;-0.058;2023-02-03T07:07:56;102484.53;;;10.20;90.43
56070;BME280;41944;52.078;-0.058;2023-02-03T07:10:23;102486.56;;;10.28;89.84
56070;BME280;41944;52.078;-0.058;2023-02-03T07:12:50;102490.15;;;10.24;90.05
56070;BME280;41944;52.078;-0.058;2023-02-03T07:15:17;102491.27;;;10.27;89.93
56070;BME280;41944;52.078;-0.058;2023-02-03T07:17:46;102492.45;;;10.25;89.98
56070;BME280;41944;52.078;-0.058;2023-02-03T07:20:12;102501.95;;;10.21;90.17
56070;BME280;41944;52.078;-0.058;2023-02-03T07:22:39;102502.82;;;10.24;90.10
56070;BME280;41944;52.078;-0.058;2023-02-03T07:25:06;102511.47;;;10.09;91.10
56070;BME280;41944;52.078;-0.058;2023-02-03T07:27:34;102499.67;;;10.09;91.20
56070;BME280;41944;52.078;-0.058;2023-02-03T07:30:01;102487.84;;;10.18;91.02
56070;BME280;41944;52.078;-0.058;2023-02-03T07:32:28;102485.79;;;10.25;90.58
56070;BME280;41944;52.078;-0.058;2023-02-03T07:34:55;102486.96;;;10.21;90.68
56070;BME280;41944;52.078;-0.058;2023-02-03T07:37:22;102489.46;;;10.20;90.91
56070;BME280;41944;52.078;-0.058;2023-02-03T07:39:49;102497.40;;;10.26;90.67
56070;BME280;41944;52.078;-0.058;2023-02-03T07:42:15;102504.81;;;10.17;91.16
56070;BME280;41944;52.078;-0.058;2023-02-03T07:44:42;102511.30;;;10.21;91.12
56070;BME280;41944;52.078;-0.058;2023-02-03T07:47:09;102513.95;;;10.25;90.79
56070;BME280;41944;52.078;-0.058;2023-02-03T07:49:36;102517.93;;;10.37;90.11
56070;BME280;41944;52.078;-0.058;2023-02-03T07:52:03;102513.92;;;10.27;90.65
56070;BME280;41944;52.078;-0.058;2023-02-03T07:54:30;102530.74;;;10.29;90.52
56070;BME280;41944;52.078;-0.058;2023-02-03T07:56:57;102539.94;;;10.28;90.75
56070;BME280;41944;52.078;-0.058;2023-02-03T07:59:24;102545.71;;;10.24;90.84
56070;BME280;41944;52.078;-0.058;2023-02-03T08:01:50;102547.59;;;10.18;91.34
56070;BME280;41944;52.078;-0.058;2023-02-03T08:04:17;102544.64;;;10.26;90.86
56070;BME280;41944;52.078;-0.058;2023-02-03T08:06:45;102540.06;;;10.26;90.76
56070;BME280;41944;52.078;-0.058;2023-02-03T08:09:12;102534.56;;;10.28;90.67
56070;BME280;41944;52.078;-0.058;2023-02-03T08:11:39;102550.38;;;10.27;90.78
56070;BME280;41944;52.078;-0.058;2023-02-03T08:14:06;102557.56;;;10.32;90.57
56070;BME280;41944;52.078;-0.058;2023-02-03T08:16:32;102554.86;;;10.36;90.27
56070;BME280;41944;52.078;-0.058;2023-02-03T08:18:59;102560.48;;;10.31;90.40
56070;BME280;41944;52.078;-0.058;2023-02-03T08:21:26;102566.58;;;10.30;90.72
56070;BME280;41944;52.078;-0.058;2023-02-03T08:23:53;102576.73;;;10.29;90.86
56070;BME280;41944;52.078;-0.058;2023-02-03T08:26:21;102580.89;;;10.31;91.12
56070;BME280;41944;52.078;-0.058;2023-02-03T08:28:48;102586.03;;;10.35;90.73
56070;BME280;41944;52.078;-0.058;2023-02-03T08:31:15;102601.23;;;10.31;91.07
56070;BME280;41944;52.078;-0.058;2023-02-03T08:33:42;102602.41;;;10.32;90.85
56070;BME280;41944;52.078;-0.058;2023-02-03T08:36:09;102607.70;;;10.29;91.32
56070;BME280;41944;52.078;-0.058;2023-02-03T08:38:36;102614.03;;;10.31;91.57
56070;BME280;41944;52.078;-0.058;2023-02-03T08:41:07;102614.06;;;10.41;90.80
56070;BME280;41944;52.078;-0.058;2023-02-03T08:43:34;102612.28;;;10.38;90.84
56070;BME280;41944;52.078;-0.058;2023-02-03T08:46:02;102611.77;;;10.46;90.45
56070;BME280;41944;52.078;-0.058;2023-02-03T08:48:29;102610.76;;;10.55;90.05
56070;BME280;41944;52.078;-0.058;2023-02-03T08:50:56;102613.48;;;10.44;90.52
56070;BME280;41944;52.078;-0.058;2023-02-03T08:53:24;102617.52;;;10.51;90.28
56070;BME280;41944;52.078;-0.058;2023-02-03T08:55:51;102623.62;;;10.55;89.76
56070;BME280;41944;52.078;-0.058;2023-02-03T08:58:18;102631.81;;;10.64;89.27
56070;BME280;41944;52.078;-0.058;2023-02-03T09:00:45;102637.16;;;10.59;89.69
56070;BME280;41944;52.078;-0.058;2023-02-03T09:03:12;102635.75;;;10.66;89.39
56070;BME280;41944;52.078;-0.058;2023-02-03T09:05:39;102640.31;;;10.84;88.06
56070;BME280;41944;52.078;-0.058;2023-02-03T09:08:05;102649.54;;;10.78;88.38
56070;BME280;41944;52.078;-0.058;2023-02-03T09:10:32;102656.61;;;10.85;88.19
56070;BME280;41944;52.078;-0.058;2023-02-03T09:12:59;102661.04;;;10.93;88.00
56070;BME280;41944;52.078;-0.058;2023-02-03T09:15:26;102663.95;;;11.08;86.67
56070;BME280;41944;52.078;-0.058;2023-02-03T09:17:53;102664.64;;;11.09;86.85
56070;BME280;41944;52.078;-0.058;2023-02-03T09:20:20;102674.89;;;11.13;86.97
56070;BME280;41944;52.078;-0.058;2023-02-03T09:22:47;102681.44;;;11.21;86.45
56070;BME280;41944;52.078;-0.058;2023-02-03T09:25:14;102688.87;;;11.21;86.83
56070;BME280;41944;52.078;-0.058;2023-02-03T09:27:41;102696.67;;;11.31;85.95
56070;BME280;41944;52.078;-0.058;2023-02-03T09:30:09;102702.03;;;11.30;86.37
56070;BME280;41944;52.078;-0.058;2023-02-03T09:32:36;102702.99;;;11.37;86.51
56070;BME280;41944;52.078;-0.058;2023-02-03T09:35:03;102715.33;;;11.32;86.80
56070;BME280;41944;52.078;-0.058;2023-02-03T09:37:31;102718.03;;;11.54;86.09
56070;BME280;41944;52.078;-0.058;2023-02-03T09:39:58;102725.27;;;11.60;84.73
56070;BME280;41944;52.078;-0.058;2023-02-03T09:42:42;102728.16;;;11.69;84.32
56070;BME280;41944;52.078;-0.058;2023-02-03T09:45:19;102728.94;;;11.71;84.07
56070;BME280;41944;52.078;-0.058;2023-02-03T09:47:52;102725.60;;;11.76;83.78
56070;BME280;41944;52.078;-0.058;2023-02-03T09:50:22;102722.64;;;11.74;84.28
56070;BME280;41944;52.078;-0.058;2023-02-03T09:52:51;102720.97;;;11.82;83.81
56070;BME280;41944;52.078;-0.058;2023-02-03T09:55:25;102722.59;;;11.86;83.43
56070;BME280;41944;52.078;-0.058;2023-02-03T09:58:00;102716.62;;;11.94;83.25
56070;BME280;41944;52.078;-0.058;2023-02-03T10:00:33;102712.45;;;12.14;80.83
56070;BME280;41944;52.078;-0.058;2023-02-03T10:03:06;102702.59;;;12.05;81.44
56070;BME280;41944;52.078;-0.058;2023-02-03T10:05:47;102693.93;;;12.08;81.63
56070;BME280;41944;52.078;-0.058;2023-02-03T10:08:24;102687.52;;;12.04;81.93
56070;BME280;41944;52.078;-0.058;2023-02-03T10:10:59;102685.36;;;12.07;81.84
56070;BME280;41944;52.078;-0.058;2023-02-03T10:13:31;102676.06;;;12.10;81.87
56070;BME280;41944;52.078;-0.058;2023-02-03T10:16:13;102675.00;;;12.14;81.61
56070;BME280;41944;52.078;-0.058;2023-02-03T10:18:46;102672.86;;;12.20;81.17
56070;BME280;41944;52.078;-0.058;2023-02-03T10:21:18;102683.54;;;12.14;81.78
56070;BME280;41944;52.078;-0.058;2023-02-03T10:23:48;102685.75;;;12.22;81.76
56070;BME280;41944;52.078;-0.058;2023-02-03T10:26:18;102693.72;;;12.25;81.79
56070;BME280;41944;52.078;-0.058;2023-02-03T10:28:52;102709.74;;;12.33;81.41
56070;BME280;41944;52.078;-0.058;2023-02-03T10:31:22;102720.53;;;12.43;80.71
56070;BME280;41944;52.078;-0.058;2023-02-03T10:33:57;102731.46;;;12.49;80.34
56070;BME280;41944;52.078;-0.058;2023-02-03T10:36:33;102735.55;;;12.49;80.50
56070;BME280;41944;52.078;-0.058;2023-02-03T10:39:13;102736.86;;;12.48;81.17
56070;BME280;41944;52.078;-0.058;2023-02-03T10:41:42;102746.32;;;12.49;80.90
56070;BME280;41944;52.078;-0.058;2023-02-03T10:44:12;102753.04;;;12.60;80.80
56070;BME280;41944;52.078;-0.058;2023-02-03T10:46:40;102755.41;;;12.65;80.60
56070;BME280;41944;52.078;-0.058;2023-02-03T10:49:08;102762.50;;;12.68;80.30
56070;BME280;41944;52.078;-0.058;2023-02-03T10:51:40;102767.83;;;12.78;79.75
56070;BME280;41944;52.078;-0.058;2023-02-03T10:54:27;102770.33;;;12.75;79.93
56070;BME280;41944;52.078;-0.058;2023-02-03T10:56:56;102770.92;;;12.89;79.21
56070;BME280;41944;52.078;-0.058;2023-02-03T10:59:28;102775.39;;;12.84;79.47
56070;BME280;41944;52.078;-0.058;2023-02-03T11:01:56;102776.99;;;12.89;80.15
56070;BME280;41944;52.078;-0.058;2023-02-03T11:04:25;102788.12;;;12.95;78.90
56070;BME280;41944;52.078;-0.058;2023-02-03T11:06:55;102798.32;;;13.04;78.33
56070;BME280;41944;52.078;-0.058;2023-02-03T11:09:29;102804.19;;;13.04;78.84
56070;BME280;41944;52.078;-0.058;2023-02-03T11:12:14;102814.76;;;13.14;78.75
56070;BME280;41944;52.078;-0.058;2023-02-03T11:14:43;102811.59;;;13.25;78.16
56070;BME280;41944;52.078;-0.058;2023-02-03T11:17:15;102813.02;;;13.32;77.74
56070;BME280;41944;52.078;-0.058;2023-02-03T11:19:45;102805.12;;;13.41;78.14
56070;BME280;41944;52.078;-0.058;2023-02-03T11:22:13;102795.23;;;13.49;76.40
56070;BME280;41944;52.078;-0.058;2023-02-03T11:24:53;102789.51;;;13.52;76.52
56070;BME280;41944;52.078;-0.058;2023-02-03T11:27:21;102790.85;;;13.56;76.26
56070;BME280;41944;52.078;-0.058;2023-02-03T11:29:50;102788.63;;;13.60;76.73
56070;BME280;41944;52.078;-0.058;2023-02-03T11:32:23;102795.52;;;13.59;76.57
56070;BME280;41944;52.078;-0.058;2023-02-03T11:34:56;102799.40;;;13.84;76.07
56070;BME280;41944;52.078;-0.058;2023-02-03T11:37:27;102795.89;;;13.79;75.68
56070;BME280;41944;52.078;-0.058;2023-02-03T11:39:55;102798.71;;;13.79;74.88
56070;BME280;41944;52.078;-0.058;2023-02-03T11:42:23;102797.69;;;13.53;76.27
56070;BME280;41944;52.078;-0.058;2023-02-03T11:44:57;102798.36;;;13.65;76.24
56070;BME280;41944;52.078;-0.058;2023-02-03T11:47:44;102799.67;;;13.67;76.04
56070;BME280;41944;52.078;-0.058;2023-02-03T11:50:21;102807.75;;;13.77;76.06
56070;BME280;41944;52.078;-0.058;2023-02-03T11:53:02;102804.57;;;13.98;75.17
56070;BME280;41944;52.078;-0.058;2023-02-03T11:55:39;102790.48;;;14.08;74.97
56070;BME280;41944;52.078;-0.058;2023-02-03T11:58:22;102788.35;;;14.15;74.61
56070;BME280;41944;52.078;-0.058;2023-02-03T12:00:59;102783.99;;;14.20;74.03
56070;BME280;41944;52.078;-0.058;2023-02-03T12:04:34;102787.16;;;14.24;73.67
56070;BME280;41944;52.078;-0.058;2023-02-03T12:07:22;102796.26;;;14.24;73.73
56070;BME280;41944;52.078;-0.058;2023-02-03T12:10:00;102799.39;;;14.14;74.95
56070;BME280;41944;52.078;-0.058;2023-02-03T12:12:43;102802.84;;;14.20;73.00
56070;BME280;41944;52.078;-0.058;2023-02-03T12:15:27;102801.34;;;14.21;73.96
56070;BME280;41944;52.078;-0.058;2023-02-03T12:18:06;102797.76;;;14.33;73.54
56070;BME280;41944;52.078;-0.058;2023-02-03T12:20:43;102801.38;;;14.31;73.78
56070;BME280;41944;52.078;-0.058;2023-02-03T12:23:21;102801.40;;;14.32;73.81
56070;BME280;41944;52.078;-0.058;2023-02-03T12:26:02;102801.69;;;14.43;74.10
56070;BME280;41944;52.078;-0.058;2023-02-03T12:28:42;102814.63;;;14.48;73.30
56070;BME280;41944;52.078;-0.058;2023-02-03T12:31:22;102797.97;;;14.46;73.55
56070;BME280;41944;52.078;-0.058;2023-02-03T12:33:58;102803.46;;;14.42;74.31
56070;BME280;41944;52.078;-0.058;2023-02-03T12:36:31;102799.82;;;14.48;73.69
56070;BME280;41944;52.078;-0.058;2023-02-03T12:39:05;102801.92;;;14.46;73.68
56070;BME280;41944;52.078;-0.058;2023-02-03T12:41:41;102804.05;;;14.52;73.55
56070;BME280;41944;52.078;-0.058;2023-02-03T12:44:17;102803.64;;;14.55;73.60
56070;BME280;41944;52.078;-0.058;2023-02-03T12:46:49;102805.40;;;14.58;73.16
56070;BME280;41944;52.078;-0.058;2023-02-03T12:49:29;102805.17;;;14.64;73.17
56070;BME280;41944;52.078;-0.058;2023-02-03T12:52:02;102811.67;;;14.75;73.02
56070;BME280;41944;52.078;-0.058;2023-02-03T12:54:38;102810.53;;;14.83;72.39
56070;BME280;41944;52.078;-0.058;2023-02-03T12:57:16;102815.41;;;14.82;72.47